^^
Datos históricos de la estación: Murcia-Puente Tocinos
Diario Informe para Julio 23, 2019 Unidades:  Métrico    Inglés   Ambas
Diario Semanal Mensual Anual Configurable
  Máximo: Mínimo: Media:
Temperatura: 35.2 °C 23.4 °C 29.1 °C
Punto de rocio: 19.4 °C 8.0 °C 14 °C
Humedad: 68% 20% 43%
Velocidad viento: 19.0km/h 0.0km/h 9km/h
Racha viento: 32.3km/h - -
Viento- - ESE
Presión: 1017.6 hPa 1013.1 hPa -
Precipitación: 0.0 mm    
Historical Graphs
 
 
Tabla de datos para Julio 23, 2019
Hora Temperatura Punto de rocio Presión Viento Velocidad viento Racha viento Humedad Intensidad lluvia(por hora) Nubes
00:04 26.3 °C 19.2 °C 1017.5 hPa ENE 3.9 km/h 9.3 km/h 65% 0.0 mm CLR
00:09 26.3 °C 19.2 °C 1017.5 hPa NE 6.9 km/h 9.3 km/h 65% 0.0 mm CLR
00:14 26.2 °C 19.1 °C 1017.5 hPa NE 6.9 km/h 9.3 km/h 65% 0.0 mm CLR
00:19 26.2 °C 19.3 °C 1017.5 hPa East 6.9 km/h 13.0 km/h 66% 0.0 mm CLR
00:24 26.2 °C 19.3 °C 1017.5 hPa NE 6.9 km/h 9.3 km/h 66% 0.0 mm CLR
00:29 26.2 °C 19.3 °C 1017.5 hPa NE 7.6 km/h 11.1 km/h 66% 0.0 mm CLR
00:34 26.2 °C 19.3 °C 1017.6 hPa NNE 7.6 km/h 7.4 km/h 66% 0.0 mm CLR
00:39 26.1 °C 19.2 °C 1017.6 hPa NW 4.7 km/h 5.8 km/h 66% 0.0 mm CLR
00:44 26.0 °C 19.2 °C 1017.6 hPa NW 4.7 km/h 3.7 km/h 66% 0.0 mm CLR
00:49 25.9 °C 19.1 °C 1017.6 hPa NW 2.9 km/h 5.6 km/h 66% 0.0 mm CLR
00:54 25.9 °C 19.3 °C 1017.6 hPa NW 2.9 km/h 2.9 km/h 67% 0.0 mm CLR
00:59 25.9 °C 19.3 °C 1017.6 hPa Calm     67% 0.0 mm CLR
01:04 25.9 °C 19.3 °C 1017.5 hPa Calm     67% 0.0 mm CLR
01:09 25.9 °C 19.3 °C 1017.5 hPa Calm     67% 0.0 mm CLR
01:14 25.9 °C 19.3 °C 1017.5 hPa Calm     67% 0.0 mm CLR
01:19 26.0 °C 19.4 °C 1017.5 hPa Calm     67% 0.0 mm CLR
01:24 26.0 °C 19.4 °C 1017.5 hPa Calm     67% 0.0 mm CLR
01:29 26.0 °C 19.2 °C 1017.5 hPa Calm     66% 0.0 mm CLR
01:34 26.0 °C 19.2 °C 1017.4 hPa Calm     66% 0.0 mm CLR
01:39 26.1 °C 19.2 °C 1017.4 hPa Calm     66% 0.0 mm CLR
01:44 26.1 °C 19.0 °C 1017.4 hPa Calm   3.7 km/h 65% 0.0 mm CLR
01:49 26.2 °C 19.1 °C 1017.3 hPa Calm     65% 0.0 mm CLR
01:54 26.2 °C 19.1 °C 1017.3 hPa Calm     65% 0.0 mm CLR
01:59 26.2 °C 19.1 °C 1017.3 hPa Calm     65% 0.0 mm CLR
02:04 26.2 °C 19.1 °C 1017.1 hPa Calm     65% 0.0 mm CLR
02:09 26.2 °C 18.8 °C 1017.1 hPa Calm     64% 0.0 mm CLR
02:14 26.2 °C 19.1 °C 1017.1 hPa Calm     65% 0.0 mm CLR
02:19 26.2 °C 19.1 °C 1016.9 hPa Calm     65% 0.0 mm CLR
02:24 26.1 °C 19.0 °C 1016.9 hPa Calm   5.6 km/h 65% 0.0 mm CLR
02:29 25.8 °C 18.4 °C 1016.9 hPa NW 2.3 km/h   64% 0.0 mm CLR
02:34 25.6 °C 18.6 °C 1017.0 hPa NW 2.3 km/h   65% 0.0 mm CLR
02:39 25.4 °C 18.6 °C 1017.0 hPa Calm     66% 0.0 mm CLR
02:44 25.3 °C 18.7 °C 1017.0 hPa Calm   5.0 km/h 67% 0.0 mm CLR
02:49 25.3 °C 18.7 °C 1016.8 hPa South 2.9 km/h 5.6 km/h 67% 0.0 mm CLR
02:54 25.3 °C 18.9 °C 1016.8 hPa SSE 2.9 km/h 7.6 km/h 68% 0.0 mm CLR
02:59 25.3 °C 18.2 °C 1016.8 hPa SE 5.8 km/h 11.1 km/h 65% 0.0 mm CLR
03:04 25.4 °C 18.3 °C 1016.8 hPa SW 5.8 km/h 5.8 km/h 65% 0.0 mm CLR
03:09 25.4 °C 17.8 °C 1016.8 hPa SSW 5.0 km/h 9.3 km/h 63% 0.0 mm CLR
03:14 25.4 °C 17.1 °C 1016.8 hPa SSW 5.0 km/h 13.0 km/h 60% 0.0 mm CLR
03:19 25.4 °C 16.8 °C 1016.7 hPa SSW 7.6 km/h 11.1 km/h 59% 0.0 mm CLR
03:24 25.4 °C 16.8 °C 1016.7 hPa SW 7.6 km/h 10.3 km/h 59% 0.0 mm CLR
03:29 25.3 °C 16.4 °C 1016.7 hPa West 6.9 km/h 13.0 km/h 58% 0.0 mm CLR
03:34 25.2 °C 16.1 °C 1016.7 hPa SW 6.9 km/h 16.7 km/h 57% 0.0 mm CLR
03:39 25.1 °C 16.0 °C 1016.7 hPa SW 8.7 km/h 14.8 km/h 57% 0.0 mm CLR
03:44 25.1 °C 16.0 °C 1016.7 hPa WSW 8.7 km/h 13.7 km/h 57% 0.0 mm CLR
03:49 25.1 °C 16.0 °C 1016.8 hPa WSW 7.6 km/h 9.3 km/h 57% 0.0 mm CLR
03:54 25.1 °C 16.0 °C 1016.8 hPa SSW 7.6 km/h 9.5 km/h 57% 0.0 mm CLR
03:59 25.0 °C 15.9 °C 1016.8 hPa WSW 6.4 km/h 7.4 km/h 57% 0.0 mm CLR
04:04 25.1 °C 16.0 °C 1016.6 hPa SW 6.4 km/h 11.1 km/h 57% 0.0 mm CLR
04:09 25.1 °C 16.0 °C 1016.6 hPa West 6.9 km/h 7.4 km/h 57% 0.0 mm CLR
04:14 25.1 °C 16.0 °C 1016.6 hPa SW 6.9 km/h 5.6 km/h 57% 0.0 mm CLR
04:19 25.1 °C 16.0 °C 1016.4 hPa SSW 4.7 km/h 7.4 km/h 57% 0.0 mm CLR
04:24 25.1 °C 16.3 °C 1016.4 hPa SSE 4.7 km/h 7.4 km/h 58% 0.0 mm CLR
04:29 25.0 °C 16.2 °C 1016.4 hPa South 4.7 km/h 5.8 km/h 58% 0.0 mm CLR
04:34 24.9 °C 16.3 °C 1016.3 hPa South 4.7 km/h 7.4 km/h 59% 0.0 mm CLR
04:39 24.9 °C 16.3 °C 1016.3 hPa SSW 5.8 km/h 9.5 km/h 59% 0.0 mm CLR
04:44 24.8 °C 16.2 °C 1016.3 hPa South 5.8 km/h 7.4 km/h 59% 0.0 mm CLR
04:49 24.8 °C 16.2 °C 1016.1 hPa SSE 5.0 km/h 7.4 km/h 59% 0.0 mm CLR
04:54 24.8 °C 16.2 °C 1016.1 hPa South 5.0 km/h 9.5 km/h 59% 0.0 mm CLR
04:59 24.8 °C 16.2 °C 1016.1 hPa South 5.8 km/h 9.3 km/h 59% 0.0 mm CLR
05:04 24.8 °C 16.2 °C 1016.0 hPa South 5.8 km/h 3.9 km/h 59% 0.0 mm CLR
05:09 24.8 °C 16.0 °C 1016.0 hPa SSW 3.9 km/h 7.4 km/h 58% 0.0 mm CLR
05:14 24.9 °C 16.1 °C 1016.0 hPa SSW 3.9 km/h 7.4 km/h 58% 0.0 mm CLR
05:19 24.9 °C 16.3 °C 1015.8 hPa SSW 3.2 km/h 3.7 km/h 59% 0.0 mm CLR
05:24 24.9 °C 16.3 °C 1015.8 hPa SSW 3.2 km/h   59% 0.0 mm CLR
05:29 24.9 °C 17.4 °C 1015.8 hPa SSW 2.3 km/h 3.7 km/h 63% 0.0 mm CLR
05:34 24.8 °C 17.5 °C 1015.9 hPa SSW 2.3 km/h 5.6 km/h 64% 0.0 mm CLR
05:39 24.6 °C 17.3 °C 1015.9 hPa South 2.9 km/h 7.4 km/h 64% 0.0 mm CLR
05:44 24.4 °C 17.4 °C 1015.9 hPa South 2.9 km/h 3.7 km/h 65% 0.0 mm CLR
05:49 24.2 °C 16.9 °C 1016.0 hPa SSW 3.2 km/h 9.3 km/h 64% 0.0 mm CLR
05:54 24.2 °C 16.7 °C 1016.0 hPa SSW 3.2 km/h 7.4 km/h 63% 0.0 mm CLR
05:59 24.1 °C 16.1 °C 1016.0 hPa SW 6.4 km/h 11.1 km/h 61% 0.0 mm CLR
06:04 24.1 °C 15.8 °C 1016.1 hPa SSW 6.4 km/h 7.4 km/h 60% 0.0 mm CLR
06:09 24.2 °C 16.2 °C 1016.1 hPa SSW 4.7 km/h   61% 0.0 mm CLR
06:14 24.2 °C 16.2 °C 1016.1 hPa SSW 4.7 km/h   61% 0.0 mm CLR
06:19 24.1 °C 16.4 °C 1015.9 hPa SE 2.3 km/h 5.6 km/h 62% 0.0 mm CLR
06:24 23.9 °C 16.2 °C 1015.9 hPa SSE 2.3 km/h 8.4 km/h 62% 0.0 mm CLR
06:29 23.6 °C 15.9 °C 1015.9 hPa SSW 5.0 km/h 10.3 km/h 62% 0.0 mm CLR
06:34 23.4 °C 15.4 °C 1016.0 hPa SSE 5.0 km/h 11.1 km/h 61% 0.0 mm CLR
06:39 23.4 °C 15.4 °C 1016.0 hPa SSW 8.7 km/h 14.8 km/h 61% 0.0 mm CLR
06:44 23.5 °C 15.3 °C 1016.0 hPa SSW 8.7 km/h 9.3 km/h 60% 0.0 mm CLR
06:49 23.6 °C 15.1 °C 1016.0 hPa SSW 9.5 km/h 13.0 km/h 59% 0.0 mm CLR
06:54 23.6 °C 15.1 °C 1016.0 hPa SSW 9.5 km/h 8.7 km/h 59% 0.0 mm CLR
06:59 23.7 °C 15.2 °C 1016.0 hPa SW 7.6 km/h 11.1 km/h 59% 0.0 mm CLR
07:04 23.7 °C 15.2 °C 1015.9 hPa SW 7.6 km/h 9.3 km/h 59% 0.0 mm CLR
07:09 23.7 °C 14.9 °C 1015.9 hPa SSW 6.9 km/h 11.1 km/h 58% 0.0 mm CLR
07:14 23.6 °C 14.8 °C 1015.9 hPa SSW 6.9 km/h 10.0 km/h 58% 0.0 mm CLR
07:19 23.6 °C 14.8 °C 1015.8 hPa SSW 7.6 km/h 7.4 km/h 58% 0.0 mm CLR
07:24 23.6 °C 14.8 °C 1015.8 hPa SW 7.6 km/h 7.4 km/h 58% 0.0 mm CLR
07:29 23.6 °C 14.8 °C 1015.8 hPa South 6.4 km/h 9.3 km/h 58% 0.0 mm CLR
07:34 23.5 °C 14.8 °C 1016.1 hPa South 6.4 km/h 11.1 km/h 58% 0.0 mm CLR
07:39 23.4 °C 14.7 °C 1016.1 hPa South 8.4 km/h 14.0 km/h 58% 0.0 mm CLR
07:44 23.4 °C 14.7 °C 1016.1 hPa SSW 8.4 km/h 14.8 km/h 58% 0.0 mm CLR
07:49 23.6 °C 14.6 °C 1016.2 hPa South 10.0 km/h 13.0 km/h 57% 0.0 mm CLR
07:54 23.7 °C 14.7 °C 1016.2 hPa South 10.0 km/h 14.8 km/h 57% 0.0 mm CLR
07:59 23.8 °C 14.2 °C 1016.2 hPa SSW 9.5 km/h 11.1 km/h 55% 0.0 mm CLR
08:04 23.9 °C 14.3 °C 1016.2 hPa South 9.5 km/h 11.1 km/h 55% 0.0 mm CLR
08:09 24.0 °C 14.4 °C 1016.2 hPa South 7.6 km/h 8.4 km/h 55% 0.0 mm CLR
08:14 24.1 °C 14.2 °C 1016.2 hPa SSW 7.6 km/h 11.9 km/h 54% 0.0 mm CLR
08:19 24.3 °C 14.4 °C 1016.3 hPa SSW 8.4 km/h 11.9 km/h 54% 0.0 mm CLR
08:24 24.4 °C 14.2 °C 1016.3 hPa SSW 8.4 km/h 14.8 km/h 53% 0.0 mm CLR
08:29 24.4 °C 14.2 °C 1016.3 hPa SW 9.5 km/h 11.1 km/h 53% 0.0 mm CLR
08:34 24.6 °C 14.1 °C 1016.4 hPa SSW 9.5 km/h 13.0 km/h 52% 0.0 mm CLR
08:39 24.7 °C 14.2 °C 1016.4 hPa SW 8.7 km/h 9.3 km/h 52% 0.0 mm CLR
08:44 24.8 °C 14.3 °C 1016.4 hPa SW 8.7 km/h 13.0 km/h 52% 0.0 mm CLR
08:49 24.8 °C 14.3 °C 1016.3 hPa SSW 8.7 km/h 11.1 km/h 52% 0.0 mm CLR
08:54 24.9 °C 14.1 °C 1016.3 hPa SSW 8.7 km/h 9.3 km/h 51% 0.0 mm CLR
08:59 25.1 °C 14.3 °C 1016.3 hPa South 5.8 km/h 9.3 km/h 51% 0.0 mm CLR
09:04 25.2 °C 14.1 °C 1016.3 hPa SSE 5.8 km/h 11.1 km/h 50% 0.0 mm CLR
09:09 25.3 °C 14.1 °C 1016.3 hPa South 7.6 km/h 13.7 km/h 50% 0.0 mm CLR
09:14 25.3 °C 14.1 °C 1016.3 hPa SSW 7.6 km/h 16.7 km/h 50% 0.0 mm CLR
09:19 25.3 °C 14.1 °C 1016.3 hPa SW 11.9 km/h 14.8 km/h 50% 0.0 mm CLR
09:24 25.4 °C 13.9 °C 1016.3 hPa NW 11.9 km/h 13.0 km/h 49% 0.0 mm CLR
09:29 25.6 °C 14.1 °C 1016.3 hPa SSW 9.5 km/h 11.1 km/h 49% 0.0 mm CLR
09:34 25.7 °C 14.2 °C 1016.1 hPa SW 9.5 km/h 9.3 km/h 49% 0.0 mm CLR
09:39 25.9 °C 14.4 °C 1016.1 hPa SSW 6.9 km/h 11.1 km/h 49% 0.0 mm CLR
09:44 26.1 °C 14.6 °C 1016.1 hPa SSW 6.9 km/h 9.3 km/h 49% 0.0 mm CLR
09:49 26.3 °C 14.4 °C 1016.3 hPa West 6.4 km/h 7.4 km/h 48% 0.0 mm CLR
09:54 26.6 °C 14.3 °C 1016.3 hPa South 6.4 km/h 7.4 km/h 47% 0.0 mm CLR
09:59 26.9 °C 14.3 °C 1016.3 hPa South 5.8 km/h 9.5 km/h 46% 0.0 mm CLR
10:04 27.0 °C 14.4 °C 1016.3 hPa South 5.8 km/h 11.1 km/h 46% 0.0 mm CLR
10:09 27.2 °C 14.6 °C 1016.3 hPa South 6.9 km/h 13.0 km/h 46% 0.0 mm CLR
10:14 27.3 °C 14.7 °C 1016.3 hPa SSW 6.9 km/h 11.1 km/h 46% 0.0 mm CLR
10:19 27.5 °C 14.8 °C 1016.3 hPa SW 9.5 km/h 13.0 km/h 46% 0.0 mm CLR
10:24 27.6 °C 14.9 °C 1016.3 hPa SW 9.5 km/h 13.0 km/h 46% 0.0 mm CLR
10:29 27.8 °C 14.8 °C 1016.3 hPa South 9.5 km/h 13.0 km/h 45% 0.0 mm CLR
10:34 27.8 °C 14.4 °C 1016.2 hPa SE 9.5 km/h 14.8 km/h 44% 0.0 mm CLR
10:39 28.2 °C 14.8 °C 1016.2 hPa SE 8.4 km/h 9.3 km/h 44% 0.0 mm CLR
10:44 28.3 °C 14.5 °C 1016.2 hPa SSW 8.4 km/h 13.0 km/h 43% 0.0 mm CLR
10:49 28.6 °C 14.8 °C 1016.0 hPa SSE 8.4 km/h 13.0 km/h 43% 0.0 mm CLR
10:54 28.8 °C 14.6 °C 1016.0 hPa SSE 8.4 km/h 11.9 km/h 42% 0.0 mm CLR
10:59 29.0 °C 14.4 °C 1016.0 hPa South 8.4 km/h 9.3 km/h 41% 0.0 mm CLR
11:04 29.2 °C 13.8 °C 1016.0 hPa SW 8.4 km/h 7.4 km/h 39% 0.0 mm CLR
11:09 29.6 °C 13.8 °C 1016.0 hPa SSW 4.7 km/h 5.6 km/h 38% 0.0 mm CLR
11:14 30.0 °C 13.7 °C 1016.0 hPa West 4.7 km/h 3.9 km/h 37% 0.0 mm CLR
11:19 30.4 °C 13.2 °C 1015.9 hPa East 2.9 km/h 6.4 km/h 35% 0.0 mm CLR
11:24 30.7 °C 13.1 °C 1015.9 hPa NE 2.9 km/h 9.3 km/h 34% 0.0 mm CLR
11:29 30.9 °C 12.3 °C 1015.9 hPa North 5.8 km/h 7.4 km/h 32% 0.0 mm CLR
11:34 31.1 °C 12.4 °C 1015.9 hPa NE 5.8 km/h 13.0 km/h 32% 0.0 mm CLR
11:39 31.0 °C 11.4 °C 1015.9 hPa NE 6.4 km/h 17.2 km/h 30% 0.0 mm CLR
11:44 30.8 °C 11.7 °C 1015.9 hPa NE 6.4 km/h 18.5 km/h 31% 0.0 mm CLR
11:49 30.8 °C 12.2 °C 1015.7 hPa NNE 10.3 km/h 13.7 km/h 32% 0.0 mm CLR
11:54 31.1 °C 12.0 °C 1015.7 hPa NNE 10.3 km/h 10.3 km/h 31% 0.0 mm CLR
11:59 31.2 °C 11.6 °C 1015.7 hPa NE 8.7 km/h 14.8 km/h 30% 0.0 mm CLR
12:04 31.5 °C 10.8 °C 1015.7 hPa North 8.7 km/h 14.8 km/h 28% 0.0 mm CLR
12:09 31.7 °C 10.4 °C 1015.7 hPa ENE 8.4 km/h 20.4 km/h 27% 0.0 mm CLR
12:14 31.9 °C 11.1 °C 1015.7 hPa NE 8.4 km/h 14.8 km/h 28% 0.0 mm CLR
12:19 32.1 °C 11.3 °C 1015.6 hPa NNE 11.1 km/h 14.8 km/h 28% 0.0 mm CLR
12:24 31.9 °C 11.1 °C 1015.6 hPa East 11.1 km/h 18.5 km/h 28% 0.0 mm CLR
12:29 32.1 °C 11.8 °C 1015.6 hPa NE 11.1 km/h 16.7 km/h 29% 0.0 mm CLR
12:34 32.1 °C 11.3 °C 1015.5 hPa NE 11.1 km/h 16.4 km/h 28% 0.0 mm CLR
12:39 32.4 °C 11.6 °C 1015.5 hPa NNW 10.3 km/h 18.5 km/h 28% 0.0 mm CLR
12:44 32.6 °C 11.7 °C 1015.5 hPa ENE 10.3 km/h 20.4 km/h 28% 0.0 mm CLR
12:49 32.5 °C 11.6 °C 1015.4 hPa NE 13.7 km/h 17.2 km/h 28% 0.0 mm CLR
12:54 32.6 °C 12.3 °C 1015.4 hPa ENE 13.7 km/h 9.5 km/h 29% 0.0 mm CLR
12:59 32.8 °C 12.4 °C 1015.4 hPa NE 11.9 km/h 20.4 km/h 29% 0.0 mm CLR
13:04 32.6 °C 12.8 °C 1015.3 hPa NE 11.9 km/h 8.7 km/h 30% 0.0 mm CLR
13:09 32.9 °C 12.5 °C 1015.3 hPa East 10.3 km/h 18.5 km/h 29% 0.0 mm CLR
13:14 33.1 °C 11.0 °C 1015.3 hPa NE 10.3 km/h 24.1 km/h 26% 0.0 mm CLR
13:19 33.3 °C 10.6 °C 1015.2 hPa NE 14.0 km/h 20.9 km/h 25% 0.0 mm CLR
13:24 33.4 °C 10.7 °C 1015.2 hPa ENE 14.0 km/h 18.5 km/h 25% 0.0 mm CLR
13:29 33.5 °C 10.8 °C 1015.2 hPa ENE 14.0 km/h 22.2 km/h 25% 0.0 mm CLR
13:34 33.6 °C 10.8 °C 1015.1 hPa NE 14.0 km/h 25.9 km/h 25% 0.0 mm CLR
13:39 33.5 °C 11.4 °C 1015.1 hPa ENE 15.6 km/h 14.8 km/h 26% 0.0 mm CLR
13:44 33.5 °C 10.8 °C 1015.1 hPa NE 15.6 km/h 27.8 km/h 25% 0.0 mm CLR
13:49 33.4 °C 10.1 °C 1015.0 hPa ENE 16.1 km/h 19.0 km/h 24% 0.0 mm CLR
13:54 33.4 °C 10.7 °C 1015.0 hPa ENE 16.1 km/h 25.9 km/h 25% 0.0 mm CLR
13:59 33.7 °C 10.3 °C 1015.0 hPa NNE 14.8 km/h 32.3 km/h 24% 0.0 mm CLR
14:04 33.6 °C 10.2 °C 1014.9 hPa NNE 14.8 km/h 29.6 km/h 24% 0.0 mm CLR
14:09 33.7 °C 10.3 °C 1014.9 hPa ENE 19.0 km/h 29.6 km/h 24% 0.0 mm CLR
14:14 33.6 °C 10.2 °C 1014.9 hPa NE 19.0 km/h 29.6 km/h 24% 0.0 mm CLR
14:19 33.8 °C 9.8 °C 1014.8 hPa NE 19.0 km/h 16.7 km/h 23% 0.0 mm CLR
14:24 34.1 °C 10.0 °C 1014.8 hPa ENE 19.0 km/h 29.6 km/h 23% 0.0 mm CLR
14:29 34.2 °C 10.1 °C 1014.8 hPa NNE 15.6 km/h 27.8 km/h 23% 0.0 mm CLR
14:34 34.1 °C 10.0 °C 1014.7 hPa North 15.6 km/h 25.9 km/h 23% 0.0 mm CLR
14:39 34.2 °C 10.1 °C 1014.7 hPa NNE 17.2 km/h 27.8 km/h 23% 0.0 mm CLR
14:44 34.3 °C 10.2 °C 1014.7 hPa North 17.2 km/h 25.9 km/h 23% 0.0 mm CLR
14:48 34.5 °C 10.3 °C 1014.6 hPa ENE 17.2 km/h 25.9 km/h 23% 0.0 mm CLR
14:54 34.5 °C 10.3 °C 1014.6 hPa NE 17.2 km/h 22.2 km/h 23% 0.0 mm CLR
14:59 34.8 °C 9.9 °C 1014.6 hPa ESE 13.7 km/h 18.5 km/h 22% 0.0 mm CLR
15:04 34.9 °C 10.0 °C 1014.5 hPa ESE 13.7 km/h 20.1 km/h 22% 0.0 mm CLR
15:09 35.1 °C 9.5 °C 1014.5 hPa ESE 12.2 km/h 18.5 km/h 21% 0.0 mm CLR
15:14 35.0 °C 9.4 °C 1014.5 hPa NE 12.2 km/h 20.9 km/h 21% 0.0 mm CLR
15:19 35.1 °C 9.5 °C 1014.5 hPa NE 11.9 km/h 27.8 km/h 21% 0.0 mm CLR
15:24 35.1 °C 8.8 °C 1014.5 hPa ESE 11.9 km/h 20.4 km/h 20% 0.0 mm CLR
15:29 35.2 °C 8.8 °C 1014.5 hPa ENE 13.7 km/h 24.1 km/h 20% 0.0 mm CLR
15:34 35.0 °C 9.4 °C 1014.4 hPa East 13.7 km/h 25.9 km/h 21% 0.0 mm CLR
15:39 34.9 °C 8.6 °C 1014.4 hPa ESE 14.0 km/h 24.1 km/h 20% 0.0 mm CLR
15:44 34.9 °C 8.6 °C 1014.4 hPa ENE 14.0 km/h 24.1 km/h 20% 0.0 mm CLR
15:49 34.9 °C 9.3 °C 1014.3 hPa ENE 15.6 km/h 20.1 km/h 21% 0.0 mm CLR
15:54 34.8 °C 8.5 °C 1014.3 hPa NE 15.6 km/h 29.6 km/h 20% 0.0 mm CLR
15:59 34.9 °C 9.3 °C 1014.3 hPa NE 15.6 km/h 20.4 km/h 21% 0.0 mm CLR
16:04 35.2 °C 9.6 °C 1014.1 hPa NE 15.6 km/h 14.8 km/h 21% 0.0 mm CLR
16:09 35.1 °C 9.5 °C 1014.1 hPa NE 11.9 km/h 24.1 km/h 21% 0.0 mm CLR
16:14 34.9 °C 10.0 °C 1014.1 hPa NE 11.9 km/h 22.2 km/h 22% 0.0 mm CLR
16:19 34.8 °C 9.9 °C 1013.9 hPa ENE 16.4 km/h 24.1 km/h 22% 0.0 mm CLR
16:24 34.8 °C 9.2 °C 1013.9 hPa NE 16.4 km/h 29.6 km/h 21% 0.0 mm CLR
16:29 34.8 °C 9.9 °C 1013.9 hPa NE 15.6 km/h 20.4 km/h 22% 0.0 mm CLR
16:34 34.7 °C 10.5 °C 1013.8 hPa NNE 15.6 km/h 20.4 km/h 23% 0.0 mm CLR
16:39 34.7 °C 10.5 °C 1013.8 hPa ENE 15.6 km/h 24.1 km/h 23% 0.0 mm CLR
16:44 34.8 °C 11.2 °C 1013.8 hPa NE 15.6 km/h 20.4 km/h 24% 0.0 mm CLR
16:49 34.8 °C 11.2 °C 1013.7 hPa NW 13.0 km/h 21.7 km/h 24% 0.0 mm CLR
16:54 34.7 °C 11.2 °C 1013.7 hPa NE 13.0 km/h 24.1 km/h 24% 0.0 mm CLR
16:59 34.7 °C 11.2 °C 1013.7 hPa NNE 14.0 km/h 24.1 km/h 24% 0.0 mm CLR
17:04 34.8 °C 11.2 °C 1013.7 hPa WNW 14.0 km/h 18.5 km/h 24% 0.0 mm CLR
17:09 34.7 °C 11.2 °C 1013.7 hPa North 13.7 km/h 22.2 km/h 24% 0.0 mm CLR
17:14 34.7 °C 11.8 °C 1013.7 hPa NNW 13.7 km/h 25.9 km/h 25% 0.0 mm CLR
17:19 34.7 °C 11.8 °C 1013.4 hPa NE 13.0 km/h 25.9 km/h 25% 0.0 mm CLR
17:24 34.7 °C 12.4 °C 1013.4 hPa East 13.0 km/h 20.4 km/h 26% 0.0 mm CLR
17:29 34.6 °C 12.9 °C 1013.4 hPa NNE 13.0 km/h 18.5 km/h 27% 0.0 mm CLR
17:34 34.4 °C 13.3 °C 1013.5 hPa ESE 13.0 km/h 22.2 km/h 28% 0.0 mm CLR
17:39 34.3 °C 12.6 °C 1013.5 hPa East 13.7 km/h 20.4 km/h 27% 0.0 mm CLR
17:44 34.2 °C 13.1 °C 1013.5 hPa NNE 13.7 km/h 20.4 km/h 28% 0.0 mm CLR
17:49 34.3 °C 13.2 °C 1013.4 hPa NE 12.2 km/h 20.4 km/h 28% 0.0 mm CLR
17:54 34.1 °C 13.6 °C 1013.4 hPa East 12.2 km/h 25.6 km/h 29% 0.0 mm CLR
17:59 34.2 °C 13.6 °C 1013.4 hPa NNE 14.0 km/h 18.5 km/h 29% 0.0 mm CLR
18:04 34.1 °C 13.6 °C 1013.4 hPa ENE 14.0 km/h 22.2 km/h 29% 0.0 mm CLR
18:09 34.0 °C 13.4 °C 1013.4 hPa SE 12.2 km/h 18.5 km/h 29% 0.0 mm CLR
18:14 34.1 °C 13.0 °C 1013.4 hPa ENE 12.2 km/h 13.0 km/h 28% 0.0 mm CLR
18:19 34.1 °C 13.0 °C 1013.3 hPa NE 11.1 km/h 22.2 km/h 28% 0.0 mm CLR
18:24 34.1 °C 12.4 °C 1013.3 hPa East 11.1 km/h 13.0 km/h 27% 0.0 mm CLR
18:29 34.0 °C 12.4 °C 1013.3 hPa NE 11.1 km/h 21.7 km/h 27% 0.0 mm CLR
18:34 33.9 °C 11.7 °C 1013.2 hPa ESE 11.1 km/h 20.4 km/h 26% 0.0 mm CLR
18:39 33.9 °C 12.3 °C 1013.2 hPa East 13.0 km/h 14.8 km/h 27% 0.0 mm CLR
18:44 33.8 °C 12.2 °C 1013.2 hPa NNE 13.0 km/h 16.7 km/h 27% 0.0 mm CLR
18:49 33.9 °C 12.3 °C 1013.2 hPa NE 11.9 km/h 20.4 km/h 27% 0.0 mm CLR
18:54 33.9 °C 12.3 °C 1013.2 hPa East 11.9 km/h 14.8 km/h 27% 0.0 mm CLR
18:59 33.9 °C 11.7 °C 1013.2 hPa NE 9.5 km/h 20.4 km/h 26% 0.0 mm CLR
19:04 33.9 °C 10.5 °C 1013.1 hPa ENE 9.5 km/h 24.1 km/h 24% 0.0 mm CLR
19:09 33.8 °C 10.4 °C 1013.1 hPa ENE 14.8 km/h 22.2 km/h 24% 0.0 mm CLR
19:14 33.6 °C 8.9 °C 1013.1 hPa NNE 14.8 km/h 24.1 km/h 22% 0.0 mm CLR
19:19 33.6 °C 9.6 °C 1013.2 hPa NE 16.1 km/h 20.4 km/h 23% 0.0 mm CLR
19:24 33.5 °C 9.5 °C 1013.2 hPa NE 16.1 km/h 24.1 km/h 23% 0.0 mm CLR
19:29 33.4 °C 8.8 °C 1013.2 hPa NE 15.6 km/h 27.8 km/h 22% 0.0 mm CLR
19:34 33.3 °C 8.0 °C 1013.2 hPa NNE 15.6 km/h 22.2 km/h 21% 0.0 mm CLR
19:39 33.2 °C 8.6 °C 1013.2 hPa NE 16.4 km/h 24.5 km/h 22% 0.0 mm CLR
19:44 33.2 °C 8.6 °C 1013.2 hPa NE 16.4 km/h 18.5 km/h 22% 0.0 mm CLR
19:49 33.1 °C 9.2 °C 1013.2 hPa NNE 14.8 km/h 19.0 km/h 23% 0.0 mm CLR
19:54 33.0 °C 9.7 °C 1013.2 hPa NNE 14.8 km/h 16.7 km/h 24% 0.0 mm CLR
19:59 32.9 °C 10.3 °C 1013.2 hPa NE 13.0 km/h 16.7 km/h 25% 0.0 mm CLR
20:04 32.9 °C 11.4 °C 1013.2 hPa ENE 13.0 km/h 14.8 km/h 27% 0.0 mm CLR
20:09 32.7 °C 12.3 °C 1013.2 hPa ENE 10.0 km/h 18.5 km/h 29% 0.0 mm CLR
20:14 32.6 °C 12.8 °C 1013.2 hPa ENE 10.0 km/h 16.7 km/h 30% 0.0 mm CLR
20:19 32.3 °C 13.0 °C 1013.2 hPa ENE 10.3 km/h 16.7 km/h 31% 0.0 mm CLR
20:24 32.1 °C 13.3 °C 1013.2 hPa NE 10.3 km/h 13.0 km/h 32% 0.0 mm CLR
20:29 31.9 °C 13.2 °C 1013.2 hPa East 10.0 km/h 16.7 km/h 32% 0.0 mm CLR
20:34 31.9 °C 13.6 °C 1013.2 hPa ENE 10.0 km/h 13.0 km/h 33% 0.0 mm CLR
20:39 31.7 °C 13.4 °C 1013.2 hPa ENE 8.4 km/h 13.0 km/h 33% 0.0 mm CLR
20:44 31.6 °C 13.4 °C 1013.2 hPa ENE 8.4 km/h 9.3 km/h 33% 0.0 mm CLR
20:49 31.5 °C 13.3 °C 1013.3 hPa NNE 6.9 km/h 11.1 km/h 33% 0.0 mm CLR
20:54 31.3 °C 13.6 °C 1013.3 hPa NE 6.9 km/h 14.8 km/h 34% 0.0 mm CLR
20:59 31.1 °C 13.8 °C 1013.3 hPa ESE 7.6 km/h 13.0 km/h 35% 0.0 mm CLR
21:04 30.9 °C 13.7 °C 1013.4 hPa East 7.6 km/h 7.4 km/h 35% 0.0 mm CLR
21:09 30.8 °C 13.6 °C 1013.4 hPa NE 6.4 km/h 7.4 km/h 35% 0.0 mm CLR
21:14 30.6 °C 13.8 °C 1013.4 hPa ESE 6.4 km/h 11.1 km/h 36% 0.0 mm CLR
21:19 30.5 °C 13.7 °C 1013.5 hPa East 6.9 km/h 11.1 km/h 36% 0.0 mm CLR
21:24 30.3 °C 13.6 °C 1013.5 hPa ENE 6.9 km/h 9.3 km/h 36% 0.0 mm CLR
21:29 30.2 °C 13.5 °C 1013.5 hPa ENE 7.6 km/h 14.8 km/h 36% 0.0 mm CLR
21:34 30.1 °C 13.4 °C 1013.4 hPa ENE 7.6 km/h 11.1 km/h 36% 0.0 mm CLR
21:39 29.9 °C 13.6 °C 1013.4 hPa ENE 8.7 km/h 11.1 km/h 37% 0.0 mm CLR
21:44 29.7 °C 13.9 °C 1013.4 hPa ENE 8.7 km/h 18.5 km/h 38% 0.0 mm CLR
21:49 29.5 °C 14.1 °C 1013.5 hPa NNE 11.9 km/h 16.7 km/h 39% 0.0 mm CLR
21:54 29.3 °C 14.3 °C 1013.5 hPa ENE 11.9 km/h 18.5 km/h 40% 0.0 mm CLR
21:59 29.1 °C 14.1 °C 1013.5 hPa NE 13.0 km/h 22.2 km/h 40% 0.0 mm CLR
22:04 28.9 °C 14.3 °C 1013.5 hPa ENE 13.0 km/h 22.2 km/h 41% 0.0 mm CLR
22:09 28.8 °C 14.6 °C 1013.5 hPa NNE 15.6 km/h 16.7 km/h 42% 0.0 mm CLR
22:14 28.6 °C 14.8 °C 1013.5 hPa NNE 15.6 km/h 18.5 km/h 43% 0.0 mm CLR
22:19 28.4 °C 14.9 °C 1013.5 hPa NE 13.0 km/h 16.7 km/h 44% 0.0 mm CLR
22:24 28.3 °C 15.2 °C 1013.5 hPa NE 13.0 km/h 18.5 km/h 45% 0.0 mm CLR
22:29 28.2 °C 15.5 °C 1013.5 hPa ENE 11.9 km/h 14.8 km/h 46% 0.0 mm CLR
22:34 28.1 °C 15.7 °C 1013.7 hPa NE 11.9 km/h 18.5 km/h 47% 0.0 mm CLR
22:39 27.9 °C 15.6 °C 1013.7 hPa East 12.2 km/h 16.7 km/h 47% 0.0 mm CLR
22:44 27.9 °C 15.6 °C 1013.7 hPa NE 12.2 km/h 20.4 km/h 47% 0.0 mm CLR
22:49 27.8 °C 15.4 °C 1013.9 hPa NNE 11.1 km/h 14.8 km/h 47% 0.0 mm CLR
22:54 27.8 °C 15.4 °C 1013.9 hPa ENE 11.1 km/h 14.8 km/h 47% 0.0 mm CLR
22:59 27.8 °C 15.4 °C 1013.9 hPa East 8.7 km/h 9.3 km/h 47% 0.0 mm CLR
23:04 27.8 °C 15.4 °C 1014.3 hPa ENE 8.7 km/h 11.1 km/h 47% 0.0 mm CLR
23:09 27.7 °C 15.4 °C 1014.3 hPa NE 7.6 km/h 16.7 km/h 47% 0.0 mm CLR
23:14 27.8 °C 15.4 °C 1014.3 hPa NE 7.6 km/h 13.0 km/h 47% 0.0 mm CLR
23:19 27.8 °C 15.4 °C 1014.4 hPa North 10.3 km/h 13.0 km/h 47% 0.0 mm CLR
23:24 27.8 °C 15.1 °C 1014.4 hPa NNE 10.3 km/h 14.8 km/h 46% 0.0 mm CLR
23:29 27.8 °C 15.1 °C 1014.4 hPa ENE 8.4 km/h 12.2 km/h 46% 0.0 mm CLR
23:34 27.9 °C 15.2 °C 1014.5 hPa ENE 8.4 km/h 8.4 km/h 46% 0.0 mm CLR
23:39 27.9 °C 15.2 °C 1014.5 hPa North 8.4 km/h 13.0 km/h 46% 0.0 mm CLR
23:44 27.9 °C 15.2 °C 1014.5 hPa ENE 8.4 km/h 9.5 km/h 46% 0.0 mm CLR
23:49 27.9 °C 15.2 °C 1014.6 hPa NE 5.8 km/h 9.3 km/h 46% 0.0 mm CLR
23:54 27.8 °C 15.1 °C 1014.6 hPa NNE 5.8 km/h 9.3 km/h 46% 0.0 mm CLR
23:59 27.8 °C 14.8 °C 1014.6 hPa NNE 6.4 km/h 11.1 km/h 45% 0.0 mm CLR
Murcia-Puente Tocinos, España
Compliments of Weather Underground - 2.75 mb

La estación de MeteoMurcia.com, publica sus datos en los siguientes proyectos:

Weather Underground PWS IMURCIAP2 Meteoclimatic www.awekas.at

W3Counter
Web Analytics